METAR Data
IDs: Format: Raw Decoded Include TAF

Data at: 2143 UTC 18 Apr 2021

EDGS 181550Z 01006KT 9999 -RA FEW009 SCT015 BKN027 07/06 Q1019